Issaquah, Washington
Current Conditions -  °F | °C
As of 2:53 PM on Tuesday 21 Oct 2014 (Local Time) from KRNT Reporting Station
Light Rain Light Rain  
Wind Chill: 58°   Ceiling: 5000
Heat Index: 58°   Visibility: 4mi
Dew Point: 52°   Wind: 8mph
Humidity: 81%   Direction: 130°SE
Pressure: 29.91"   Gusts: NA
Location:  47.53°N, 122.03°W
Report Text: KRNT 212153Z 13007KT 4SM -RA SCT043 BKN050 OVC060 14/11 A2991 RMK AO2 SLP133 P0000 T01440111
Loading
Personal Weather Stations






























Interactive Weather Map
Tropical Storm Tracking
New forecast layout! Learn more

10-Day Weather Forecast

Advertisements
Track Severe Weather on mobile